LFKF/FSC METAR and TAF weather

Enter ICAO airport designator
Station Type Date Time Source
LFKF METAR 2021/01/22 07:00 UTC NOAA

LFKF 220700Z AUTO 24011KT 7000 BKN011 BKN021 OVC082 14/12 Q1009 NOSIG


Station Type Date Time Source
LFKF Decoded METAR 2021/01/22 07:00 UTC NOAA

Figari, France (LFKF) 41-30N 009-06E 23M
Jan 22, 2021 - 02:00 AM EST / 2021.01.22 0700 UTC
Wind: from the WSW (240 degrees) at 13 MPH (11 KT):0
Visibility: 4 mile(s):0
Sky conditions: overcast
Temperature: 57 F (14 C)
Dew Point: 53 F (12 C)
Relative Humidity: 87%
Pressure (altimeter): 29.80 in. Hg (1009 hPa)
ob: LFKF 220700Z AUTO 24011KT 7000 BKN011 BKN021 OVC082 14/12 Q1009 NOSIG
cycle: 7

Station Type Date Time Source
LFKF TAF 2021/01/22 03:21 UTC NOAA

TAF TAF LFKF 220200Z 2203/2303 23012KT 9999 SCT015 BKN020
TEMPO 2203/2209 -RA BKN014
BECMG 2209/2211 23020G30KT SHRA BKN020 FEW035CB BKN050
TEMPO 2211/2221 24020G40KT PROB40
TEMPO 2212/2215 4000 TSRA
BECMG 2221/2223 27020G35KT 9999 FEW040

Example: see airport list